Wetterdaten: aktuell Dienstag, 25.06.2019 09:30
Datum Zeit Temp. A. Feuchte A. Luftdruck Regen Wind Richtung Richtung Taupunkt Windchill Windben Empfang
25.06.2019 09:30 26,2 C 51 % 1018,1 hPa 0,0 l/m 3,1 km/h (1 Bft) S-SO 150 15,2 C 26,2 C 16,2 km/h (3 Bft) 99 %
25.06.2019 09:20 25,9 C 51 % 1018,0 hPa 0,0 l/m 5,2 km/h (1 Bft) O-SO 117 15,0 C 25,9 C 20,3 km/h (4 Bft) 98 %
25.06.2019 09:10 25,7 C 52 % 1017,9 hPa 0,0 l/m 4,7 km/h (1 Bft) SO 128 15,1 C 25,7 C 16,2 km/h (3 Bft) 99 %
25.06.2019 09:00 25,1 C 53 % 1017,9 hPa 0,0 l/m 3,9 km/h (1 Bft) SO 135 14,8 C 25,1 C 14,2 km/h (3 Bft) 99 %
25.06.2019 08:50 24,6 C 54 % 1017,9 hPa 0,0 l/m 5,6 km/h (1 Bft) S-SO 148 14,7 C 24,6 C 16,2 km/h (3 Bft) 100 %
25.06.2019 08:40 23,9 C 57 % 1017,9 hPa 0,0 l/m 3,7 km/h (1 Bft) O-SO 118 14,9 C 23,9 C 14,2 km/h (3 Bft) 100 %
25.06.2019 08:30 23,6 C 57 % 1017,8 hPa 0,0 l/m 3,5 km/h (1 Bft) SO 144 14,6 C 23,6 C 12,2 km/h (2 Bft) 100 %
25.06.2019 08:20 23,3 C 57 % 1017,8 hPa 0,0 l/m 4,8 km/h (1 Bft) SO 132 14,3 C 23,3 C 16,2 km/h (3 Bft) 100 %
25.06.2019 08:10 22,9 C 57 % 1017,8 hPa 0,0 l/m 4,9 km/h (1 Bft) NO 49 13,9 C 22,9 C 16,2 km/h (3 Bft) 100 %
25.06.2019 08:00 22,6 C 59 % 1017,8 hPa 0,0 l/m 5,3 km/h (1 Bft) S 177 14,2 C 22,6 C 18,2 km/h (3 Bft) 99 %
25.06.2019 07:50 22,2 C 60 % 1017,9 hPa 0,0 l/m 3,3 km/h (1 Bft) O-SO 123 14,1 C 22,2 C 14,2 km/h (3 Bft) 100 %
25.06.2019 07:40 21,8 C 61 % 1017,9 hPa 0,0 l/m 4,7 km/h (1 Bft) SO 128 13,9 C 21,8 C 12,2 km/h (2 Bft) 98 %
25.06.2019 07:30 21,4 C 64 % 1017,8 hPa 0,0 l/m 4,7 km/h (1 Bft) O-SO 117 14,3 C 21,4 C 14,2 km/h (3 Bft) 100 %
25.06.2019 07:20 21,1 C 64 % 1017,9 hPa 0,0 l/m 4,4 km/h (1 Bft) S-SO 153 14,0 C 21,1 C 12,2 km/h (2 Bft) 99 %
25.06.2019 07:10 20,9 C 64 % 1017,9 hPa 0,0 l/m 3,4 km/h (1 Bft) O-SO 105 13,8 C 20,9 C 8,1 km/h (2 Bft) 100 %
25.06.2019 07:00 20,8 C 64 % 1017,9 hPa 0,0 l/m 4,9 km/h (1 Bft) SO 132 13,7 C 20,8 C 12,2 km/h (2 Bft) 100 %
25.06.2019 06:50 20,8 C 64 % 1017,8 hPa 0,0 l/m 3,9 km/h (1 Bft) O-SO 110 13,7 C 20,8 C 12,2 km/h (2 Bft) 99 %
25.06.2019 06:40 20,7 C 64 % 1017,8 hPa 0,0 l/m 5,3 km/h (1 Bft) O-SO 109 13,6 C 20,7 C 14,2 km/h (3 Bft) 100 %
25.06.2019 06:30 20,6 C 64 % 1017,8 hPa 0,0 l/m 4,4 km/h (1 Bft) O 98 13,5 C 20,6 C 14,2 km/h (3 Bft) 100 %
25.06.2019 06:20 20,4 C 65 % 1017,7 hPa 0,0 l/m 4,8 km/h (1 Bft) O-SO 111 13,6 C 20,4 C 14,2 km/h (3 Bft) 99 %
25.06.2019 06:10 20,3 C 65 % 1017,8 hPa 0,0 l/m 3,3 km/h (1 Bft) S-SO 156 13,5 C 20,3 C 14,2 km/h (3 Bft) 99 %
25.06.2019 06:00 20,1 C 65 % 1017,7 hPa 0,0 l/m 2,8 km/h (1 Bft) O-SO 109 13,3 C 20,1 C 12,2 km/h (2 Bft) 100 %
25.06.2019 05:50 19,9 C 66 % 1017,8 hPa 0,0 l/m 3,9 km/h (1 Bft) SO 142 13,4 C 19,9 C 8,1 km/h (2 Bft) 98 %
25.06.2019 05:40 19,9 C 66 % 1017,8 hPa 0,0 l/m 3,6 km/h (1 Bft) O-SO 123 13,4 C 19,9 C 8,1 km/h (2 Bft) 99 %
25.06.2019 05:30 19,9 C 66 % 1017,7 hPa 0,0 l/m 4,2 km/h (1 Bft) SO 135 13,4 C 19,9 C 12,2 km/h (2 Bft) 100 %
25.06.2019 05:20 19,9 C 66 % 1017,7 hPa 0,0 l/m 3,4 km/h (1 Bft) SO 132 13,4 C 19,9 C 6,1 km/h (2 Bft) 100 %
25.06.2019 05:10 20,0 C 65 % 1017,7 hPa 0,0 l/m 3,5 km/h (1 Bft) SO 128 13,2 C 20,0 C 8,1 km/h (2 Bft) 99 %
25.06.2019 05:00 20,1 C 65 % 1017,8 hPa 0,0 l/m 3,9 km/h (1 Bft) O-SO 123 13,3 C 20,1 C 14,2 km/h (3 Bft) 100 %
25.06.2019 04:50 20,2 C 65 % 1017,8 hPa 0,0 l/m 4,7 km/h (1 Bft) O 96 13,4 C 20,2 C 14,2 km/h (3 Bft) 100 %
25.06.2019 04:40 20,2 C 65 % 1017,9 hPa 0,0 l/m 3,9 km/h (1 Bft) SO 132 13,4 C 20,2 C 8,1 km/h (2 Bft) 100 %
25.06.2019 04:30 20,3 C 65 % 1017,9 hPa 0,0 l/m 3,9 km/h (1 Bft) SO 144 13,5 C 20,3 C 12,2 km/h (2 Bft) 100 %
25.06.2019 04:20 20,4 C 64 % 1018,0 hPa 0,0 l/m 3,9 km/h (1 Bft) O-SO 113 13,4 C 20,4 C 12,2 km/h (2 Bft) 98 %
25.06.2019 04:10 20,6 C 64 % 1018,0 hPa 0,0 l/m 2,7 km/h (1 Bft) O-SO 117 13,5 C 20,6 C 8,1 km/h (2 Bft) 99 %
25.06.2019 04:00 20,7 C 63 % 1018,1 hPa 0,0 l/m 2,2 km/h (1 Bft) SO 127 13,4 C 20,7 C 8,1 km/h (2 Bft) 100 %
25.06.2019 03:50 20,8 C 63 % 1018,0 hPa 0,0 l/m 3,4 km/h (1 Bft) SO 137 13,5 C 20,8 C 12,2 km/h (2 Bft) 98 %
25.06.2019 03:40 20,9 C 63 % 1018,2 hPa 0,0 l/m 3,4 km/h (1 Bft) SO 125 13,6 C 20,9 C 10,1 km/h (2 Bft) 100 %
25.06.2019 03:30 21,1 C 62 % 1018,2 hPa 0,0 l/m 3,6 km/h (1 Bft) SO 135 13,5 C 21,1 C 12,2 km/h (2 Bft) 98 %
25.06.2019 03:20 21,2 C 62 % 1018,2 hPa 0,0 l/m 3,1 km/h (1 Bft) SO 128 13,6 C 21,2 C 8,1 km/h (2 Bft) 99 %
25.06.2019 03:10 21,3 C 62 % 1018,3 hPa 0,0 l/m 4,6 km/h (1 Bft) O-SO 110 13,7 C 21,3 C 12,2 km/h (2 Bft) 99 %
25.06.2019 03:00 21,4 C 61 % 1018,4 hPa 0,0 l/m 5,3 km/h (1 Bft) O 86 13,6 C 21,4 C 12,2 km/h (2 Bft) 99 %
25.06.2019 02:50 21,5 C 61 % 1018,4 hPa 0,0 l/m 4,3 km/h (1 Bft) SO 130 13,7 C 21,5 C 12,2 km/h (2 Bft) 99 %
25.06.2019 02:40 21,7 C 60 % 1018,4 hPa 0,0 l/m 3,6 km/h (1 Bft) O-SO 111 13,6 C 21,7 C 14,2 km/h (3 Bft) 100 %
25.06.2019 02:30 21,8 C 60 % 1018,5 hPa 0,0 l/m 4,6 km/h (1 Bft) S 172 13,7 C 21,8 C 12,2 km/h (2 Bft) 100 %
25.06.2019 02:20 21,9 C 60 % 1018,5 hPa 0,0 l/m 5,2 km/h (1 Bft) O-SO 119 13,8 C 21,9 C 14,2 km/h (3 Bft) 100 %
25.06.2019 02:10 22,0 C 59 % 1018,6 hPa 0,0 l/m 4,6 km/h (1 Bft) O-SO 123 13,6 C 22,0 C 14,2 km/h (3 Bft) 99 %
25.06.2019 02:00 22,1 C 59 % 1018,7 hPa 0,0 l/m 5,2 km/h (1 Bft) SO 135 13,7 C 22,1 C 12,2 km/h (2 Bft) 99 %
25.06.2019 01:50 22,2 C 59 % 1018,7 hPa 0,0 l/m 5,2 km/h (1 Bft) SO 134 13,8 C 22,2 C 12,2 km/h (2 Bft) 98 %
25.06.2019 01:40 22,3 C 58 % 1018,8 hPa 0,0 l/m 4,0 km/h (1 Bft) O-NO 69 13,6 C 22,3 C 10,1 km/h (2 Bft) 100 %
25.06.2019 01:30 22,5 C 58 % 1018,8 hPa 0,0 l/m 4,5 km/h (1 Bft) O-SO 102 13,8 C 22,5 C 12,2 km/h (2 Bft) 98 %
25.06.2019 01:20 22,6 C 58 % 1018,8 hPa 0,0 l/m 4,8 km/h (1 Bft) O-SO 105 13,9 C 22,6 C 12,2 km/h (2 Bft) 99 %
25.06.2019 01:10 22,7 C 58 % 1018,8 hPa 0,0 l/m 4,8 km/h (1 Bft) O-SO 102 14,0 C 22,7 C 14,2 km/h (3 Bft) 99 %
25.06.2019 01:00 22,8 C 57 % 1018,9 hPa 0,0 l/m 4,6 km/h (1 Bft) O-SO 111 13,8 C 22,8 C 12,2 km/h (2 Bft) 98 %
25.06.2019 00:50 23,0 C 57 % 1019,0 hPa 0,0 l/m 5,0 km/h (1 Bft) SO 135 14,0 C 23,0 C 12,2 km/h (2 Bft) 98 %
25.06.2019 00:40 23,2 C 57 % 1019,0 hPa 0,0 l/m 3,9 km/h (1 Bft) O-SO 115 14,2 C 23,2 C 8,1 km/h (2 Bft) 99 %
25.06.2019 00:30 23,3 C 56 % 1019,0 hPa 0,0 l/m 4,9 km/h (1 Bft) SO 130 14,0 C 23,3 C 14,2 km/h (3 Bft) 99 %
25.06.2019 00:20 23,4 C 56 % 1019,1 hPa 0,0 l/m 5,0 km/h (1 Bft) O-SO 104 14,1 C 23,4 C 14,2 km/h (3 Bft) 99 %
25.06.2019 00:10 23,6 C 56 % 1019,1 hPa 0,0 l/m 5,0 km/h (1 Bft) O-SO 121 14,3 C 23,6 C 14,2 km/h (3 Bft) 98 %
25.06.2019 00:00 23,8 C 56 % 1019,1 hPa 0,0 l/m 4,1 km/h (1 Bft) O-SO 119 14,5 C 23,8 C 12,2 km/h (2 Bft) 100 %
24.06.2019 23:50 24,1 C 55 % 1019,1 hPa 0,0 l/m 4,1 km/h (1 Bft) O-SO 113 14,5 C 24,1 C 12,2 km/h (2 Bft) 99 %
24.06.2019 23:40 24,2 C 54 % 1019,1 hPa 0,0 l/m 4,8 km/h (1 Bft) O-SO 111 14,3 C 24,2 C 14,2 km/h (3 Bft) 99 %
24.06.2019 23:30 24,4 C 54 % 1019,0 hPa 0,0 l/m 5,5 km/h (1 Bft) O-SO 121 14,5 C 24,4 C 14,2 km/h (3 Bft) 100 %
24.06.2019 23:20 24,6 C 54 % 1019,0 hPa 0,0 l/m 5,0 km/h (1 Bft) O-SO 113 14,7 C 24,6 C 16,2 km/h (3 Bft) 99 %
24.06.2019 23:10 24,8 C 53 % 1018,8 hPa 0,0 l/m 2,5 km/h (1 Bft) O-SO 115 14,6 C 24,8 C 6,1 km/h (2 Bft) 96 %
24.06.2019 23:00 24,9 C 53 % 1018,7 hPa 0,0 l/m 6,3 km/h (2 Bft) O-SO 104 14,6 C 24,9 C 16,2 km/h (3 Bft) 100 %
24.06.2019 22:50 25,1 C 52 % 1018,8 hPa 0,0 l/m 5,1 km/h (1 Bft) O-SO 117 14,5 C 25,1 C 18,2 km/h (3 Bft) 98 %
24.06.2019 22:40 25,3 C 51 % 1018,7 hPa 0,0 l/m 5,7 km/h (1 Bft) O-SO 105 14,4 C 25,3 C 14,2 km/h (3 Bft) 100 %
24.06.2019 22:30 25,6 C 50 % 1018,7 hPa 0,0 l/m 5,1 km/h (1 Bft) O 91 14,4 C 25,6 C 14,2 km/h (3 Bft) 100 %
24.06.2019 22:20 25,9 C 49 % 1018,6 hPa 0,0 l/m 5,2 km/h (1 Bft) O-SO 104 14,4 C 25,9 C 14,2 km/h (3 Bft) 99 %
24.06.2019 22:10 26,2 C 47 % 1018,6 hPa 0,0 l/m 5,0 km/h (1 Bft) O-SO 121 14,0 C 26,2 C 14,2 km/h (3 Bft) 100 %
24.06.2019 22:00 26,5 C 46 % 1018,5 hPa 0,0 l/m 6,0 km/h (2 Bft) O 97 13,9 C 26,5 C 16,2 km/h (3 Bft) 100 %
24.06.2019 21:50 26,8 C 45 % 1018,5 hPa 0,0 l/m 5,6 km/h (1 Bft) O 90 13,9 C 26,8 C 14,2 km/h (3 Bft) 99 %
24.06.2019 21:40 27,1 C 45 % 1018,5 hPa 0,0 l/m 5,3 km/h (1 Bft) O 97 14,1 C 27,1 C 14,2 km/h (3 Bft) 100 %
24.06.2019 21:30 27,4 C 44 % 1018,4 hPa 0,0 l/m 5,1 km/h (1 Bft) O-SO 114 14,0 C 27,4 C 14,2 km/h (3 Bft) 100 %
24.06.2019 21:20 27,8 C 43 % 1018,4 hPa 0,0 l/m 6,4 km/h (2 Bft) O-SO 111 14,1 C 27,8 C 16,2 km/h (3 Bft) 98 %
24.06.2019 21:10 28,2 C 42 % 1018,4 hPa 0,0 l/m 5,5 km/h (1 Bft) O-SO 107 14,0 C 28,2 C 16,2 km/h (3 Bft) 100 %
24.06.2019 21:00 28,6 C 41 % 1018,4 hPa 0,0 l/m 5,7 km/h (1 Bft) O-NO 72 14,0 C 28,6 C 16,2 km/h (3 Bft) 99 %
24.06.2019 20:50 29,1 C 40 % 1018,4 hPa 0,0 l/m 6,1 km/h (2 Bft) SO 129 14,1 C 29,1 C 18,2 km/h (3 Bft) 100 %
24.06.2019 20:40 29,6 C 39 % 1018,3 hPa 0,0 l/m 7,8 km/h (2 Bft) SO 134 14,2 C 29,6 C 18,2 km/h (3 Bft) 100 %
24.06.2019 20:30 30,1 C 39 % 1018,4 hPa 0,0 l/m 7,4 km/h (2 Bft) S-SO 148 14,6 C 30,1 C 22,3 km/h (4 Bft) 99 %
24.06.2019 20:20 30,4 C 38 % 1018,3 hPa 0,0 l/m 7,0 km/h (2 Bft) SO 128 14,5 C 30,4 C 18,2 km/h (3 Bft) 99 %
24.06.2019 20:10 30,4 C 38 % 1018,4 hPa 0,0 l/m 6,7 km/h (2 Bft) SO 137 14,5 C 30,4 C 20,3 km/h (4 Bft) 100 %
24.06.2019 20:00 30,3 C 38 % 1018,4 hPa 0,0 l/m 8,4 km/h (2 Bft) O-SO 108 14,4 C 30,3 C 24,3 km/h (4 Bft) 99 %
24.06.2019 19:50 30,1 C 39 % 1018,4 hPa 0,0 l/m 6,1 km/h (2 Bft) O-SO 107 14,6 C 30,1 C 16,2 km/h (3 Bft) 100 %
24.06.2019 19:40 30,1 C 39 % 1018,4 hPa 0,0 l/m 8,1 km/h (2 Bft) SO 140 14,6 C 30,1 C 22,3 km/h (4 Bft) 99 %
24.06.2019 19:30 30,4 C 38 % 1018,3 hPa 0,0 l/m 8,1 km/h (2 Bft) O 86 14,5 C 30,4 C 24,3 km/h (4 Bft) 99 %
24.06.2019 19:20 30,7 C 37 % 1018,4 hPa 0,0 l/m 10,7 km/h (2 Bft) O 86 14,3 C 30,7 C 28,4 km/h (4 Bft) 100 %
24.06.2019 19:10 31,2 C 36 % 1018,3 hPa 0,0 l/m 9,0 km/h (2 Bft) O-SO 108 14,3 C 31,2 C 28,4 km/h (4 Bft) 99 %
24.06.2019 19:00 31,6 C 35 % 1018,4 hPa 0,0 l/m 8,6 km/h (2 Bft) O-NO 62 14,2 C 31,6 C 20,3 km/h (4 Bft) 99 %
24.06.2019 18:50 31,7 C 35 % 1018,4 hPa 0,0 l/m 10,1 km/h (2 Bft) SO 134 14,3 C 31,7 C 22,3 km/h (4 Bft) 100 %
24.06.2019 18:40 31,9 C 35 % 1018,5 hPa 0,0 l/m 10,0 km/h (2 Bft) O-SO 105 14,5 C 31,9 C 22,3 km/h (4 Bft) 98 %
24.06.2019 18:30 32,0 C 35 % 1018,5 hPa 0,0 l/m 6,6 km/h (2 Bft) W-SW 248 14,6 C 32,0 C 18,2 km/h (3 Bft) 99 %
24.06.2019 18:20 32,2 C 35 % 1018,5 hPa 0,0 l/m 9,8 km/h (2 Bft) O-NO 78 14,8 C 32,2 C 20,3 km/h (4 Bft) 97 %
24.06.2019 18:10 32,1 C 36 % 1018,6 hPa 0,0 l/m 9,7 km/h (2 Bft) O-SO 111 15,1 C 32,1 C 28,4 km/h (4 Bft) 100 %
24.06.2019 18:00 32,2 C 36 % 1018,7 hPa 0,0 l/m 8,9 km/h (2 Bft) S-SW 212 15,2 C 32,2 C 24,3 km/h (4 Bft) 100 %
24.06.2019 17:50 32,1 C 35 % 1018,8 hPa 0,0 l/m 9,0 km/h (2 Bft) O-SO 103 14,7 C 32,1 C 24,3 km/h (4 Bft) 99 %
24.06.2019 17:40 31,8 C 36 % 1018,8 hPa 0,0 l/m 6,4 km/h (2 Bft) SO 142 14,9 C 31,8 C 20,3 km/h (4 Bft) 100 %
24.06.2019 17:30 31,9 C 35 % 1018,8 hPa 0,0 l/m 6,2 km/h (2 Bft) S 170 14,5 C 31,9 C 20,3 km/h (4 Bft) 100 %
24.06.2019 17:20 32,3 C 34 % 1018,8 hPa 0,0 l/m 11,3 km/h (2 Bft) O-SO 112 14,4 C 32,3 C 28,4 km/h (4 Bft) 99 %
24.06.2019 17:10 32,4 C 34 % 1018,8 hPa 0,0 l/m 10,4 km/h (2 Bft) O-NO 75 14,5 C 32,4 C 26,4 km/h (4 Bft) 99 %
24.06.2019 17:00 32,5 C 33 % 1018,8 hPa 0,0 l/m 8,7 km/h (2 Bft) O-SO 117 14,1 C 32,5 C 24,3 km/h (4 Bft) 100 %
24.06.2019 16:50 32,6 C 34 % 1018,7 hPa 0,0 l/m 11,9 km/h (2 Bft) O-SO 112 14,7 C 32,6 C 30,4 km/h (5 Bft) 99 %
24.06.2019 16:40 32,5 C 34 % 1018,8 hPa 0,0 l/m 9,3 km/h (2 Bft) O 91 14,6 C 32,5 C 22,3 km/h (4 Bft) 100 %
24.06.2019 16:30 32,6 C 34 % 1018,9 hPa 0,0 l/m 9,4 km/h (2 Bft) O 85 14,7 C 32,6 C 28,4 km/h (4 Bft) 100 %
24.06.2019 16:20 32,4 C 34 % 1018,8 hPa 0,0 l/m 10,5 km/h (2 Bft) O 100 14,5 C 32,4 C 28,4 km/h (4 Bft) 98 %
24.06.2019 16:10 32,4 C 35 % 1018,9 hPa 0,0 l/m 8,8 km/h (2 Bft) SO 130 14,9 C 32,4 C 26,4 km/h (4 Bft) 98 %
24.06.2019 16:00 32,6 C 35 % 1018,9 hPa 0,0 l/m 7,1 km/h (2 Bft) O-SO 103 15,1 C 32,6 C 22,3 km/h (4 Bft) 99 %
24.06.2019 15:50 32,8 C 35 % 1018,9 hPa 0,0 l/m 8,2 km/h (2 Bft) SO 138 15,3 C 32,8 C 22,3 km/h (4 Bft) 99 %
24.06.2019 15:40 32,3 C 37 % 1018,9 hPa 0,0 l/m 11,3 km/h (2 Bft) O-SO 107 15,7 C 32,3 C 24,3 km/h (4 Bft) 99 %
24.06.2019 15:30 31,8 C 38 % 1019,1 hPa 0,0 l/m 9,2 km/h (2 Bft) N-NO 22 15,7 C 31,8 C 28,4 km/h (4 Bft) 100 %
24.06.2019 15:20 31,6 C 39 % 1019,1 hPa 0,0 l/m 11,6 km/h (2 Bft) S 180 15,9 C 31,6 C 32,4 km/h (5 Bft) 100 %
24.06.2019 15:10 31,9 C 39 % 1018,9 hPa 0,0 l/m 11,2 km/h (2 Bft) N-NO 32 16,2 C 31,9 C 28,4 km/h (4 Bft) 99 %
24.06.2019 15:04 31,8 C 39 % 1018,9 hPa 0,0 l/m 9,2 km/h (2 Bft) O-SO 109 16,1 C 31,8 C 18,2 km/h (3 Bft) 96 %
24.06.2019 15:03 31,8 C 40 % 1019,0 hPa 0,0 l/m 11,5 km/h (2 Bft) O-SO 106 16,5 C 31,8 C 30,4 km/h (5 Bft) 100 %
24.06.2019 14:50 31,4 C 40 % 1019,0 hPa 0,0 l/m 11,7 km/h (2 Bft) S-SO 151 16,1 C 31,4 C 34,5 km/h (5 Bft) 100 %
24.06.2019 14:40 31,4 C 41 % 1019,1 hPa 0,0 l/m 10,0 km/h (2 Bft) O-SO 104 16,5 C 31,4 C 30,4 km/h (5 Bft) 100 %
24.06.2019 14:30 31,1 C 41 % 1019,1 hPa 0,0 l/m 7,2 km/h (2 Bft) O 101 16,3 C 31,1 C 22,3 km/h (4 Bft) 100 %
24.06.2019 14:20 31,3 C 40 % 1019,2 hPa 0,0 l/m 8,6 km/h (2 Bft) SW 217 16,1 C 31,3 C 20,3 km/h (4 Bft) 100 %
24.06.2019 14:10 31,2 C 40 % 1019,2 hPa 0,0 l/m 12,0 km/h (2 Bft) O 83 16,0 C 31,2 C 28,4 km/h (4 Bft) 100 %
24.06.2019 14:00 30,9 C 41 % 1019,4 hPa 0,0 l/m 11,3 km/h (2 Bft) SO 136 16,1 C 30,9 C 28,4 km/h (4 Bft) 99 %
24.06.2019 13:50 30,9 C 42 % 1019,3 hPa 0,0 l/m 10,6 km/h (2 Bft) O 93 16,5 C 30,9 C 28,4 km/h (4 Bft) 99 %
24.06.2019 13:40 30,7 C 43 % 1019,4 hPa 0,0 l/m 11,8 km/h (2 Bft) O-NO 78 16,7 C 30,7 C 28,4 km/h (4 Bft) 99 %
24.06.2019 13:30 30,6 C 42 % 1019,5 hPa 0,0 l/m 12,1 km/h (2 Bft) O 101 16,2 C 30,6 C 34,5 km/h (5 Bft) 100 %
24.06.2019 13:20 30,5 C 44 % 1019,6 hPa 0,0 l/m 11,1 km/h (2 Bft) O-SO 121 16,8 C 30,5 C 32,4 km/h (5 Bft) 100 %
24.06.2019 13:10 30,0 C 45 % 1019,5 hPa 0,0 l/m 7,5 km/h (2 Bft) O-SO 104 16,7 C 30,0 C 32,4 km/h (5 Bft) 100 %
24.06.2019 13:00 30,3 C 43 % 1019,6 hPa 0,0 l/m 8,2 km/h (2 Bft) O-SO 111 16,3 C 30,3 C 24,3 km/h (4 Bft) 100 %
24.06.2019 12:50 30,3 C 44 % 1019,8 hPa 0,0 l/m 10,1 km/h (2 Bft) O 92 16,7 C 30,3 C 30,4 km/h (5 Bft) 99 %
24.06.2019 12:40 30,0 C 46 % 1019,7 hPa 0,0 l/m 7,5 km/h (2 Bft) O 91 17,1 C 30,0 C 20,3 km/h (4 Bft) 99 %
24.06.2019 12:30 29,7 C 45 % 1019,9 hPa 0,0 l/m 10,8 km/h (2 Bft) NO 53 16,5 C 29,7 C 26,4 km/h (4 Bft) 98 %
24.06.2019 12:20 29,5 C 47 % 1019,9 hPa 0,0 l/m 10,9 km/h (2 Bft) SO 126 17,0 C 29,5 C 34,5 km/h (5 Bft) 98 %
24.06.2019 12:10 29,2 C 47 % 1020,0 hPa 0,0 l/m 8,3 km/h (2 Bft) SO 134 16,7 C 29,2 C 22,3 km/h (4 Bft) 99 %
24.06.2019 12:00 29,3 C 46 % 1020,0 hPa 0,0 l/m 8,6 km/h (2 Bft) S-SO 157 16,5 C 29,3 C 24,3 km/h (4 Bft) 99 %
24.06.2019 11:50 28,8 C 48 % 1020,1 hPa 0,0 l/m 10,3 km/h (2 Bft) O 86 16,7 C 28,8 C 30,4 km/h (5 Bft) 100 %
24.06.2019 11:40 28,7 C 49 % 1020,1 hPa 0,0 l/m 7,3 km/h (2 Bft) O 92 16,9 C 28,7 C 26,4 km/h (4 Bft) 100 %
24.06.2019 11:30 28,6 C 47 % 1020,1 hPa 0,0 l/m 11,2 km/h (2 Bft) O 98 16,2 C 28,6 C 28,4 km/h (4 Bft) 100 %
24.06.2019 11:20 28,2 C 49 % 1020,3 hPa 0,0 l/m 9,1 km/h (2 Bft) O 96 16,5 C 28,2 C 22,3 km/h (4 Bft) 100 %
24.06.2019 11:10 27,8 C 50 % 1020,3 hPa 0,0 l/m 8,8 km/h (2 Bft) O-SO 109 16,4 C 27,8 C 26,4 km/h (4 Bft) 100 %
24.06.2019 11:00 27,5 C 51 % 1020,3 hPa 0,0 l/m 4,6 km/h (1 Bft) SO 131 16,4 C 27,5 C 14,2 km/h (3 Bft) 98 %
24.06.2019 10:50 27,1 C 52 % 1020,3 hPa 0,0 l/m 6,0 km/h (2 Bft) O-SO 117 16,4 C 27,1 C 18,2 km/h (3 Bft) 99 %
24.06.2019 10:40 26,7 C 53 % 1020,4 hPa 0,0 l/m 7,8 km/h (2 Bft) O 100 16,3 C 26,7 C 20,3 km/h (4 Bft) 100 %
24.06.2019 10:30 26,4 C 53 % 1020,4 hPa 0,0 l/m 9,7 km/h (2 Bft) O 101 16,0 C 26,4 C 26,4 km/h (4 Bft) 99 %
24.06.2019 10:20 25,9 C 53 % 1020,4 hPa 0,0 l/m 10,0 km/h (2 Bft) O-SO 112 15,6 C 25,9 C 24,3 km/h (4 Bft) 98 %
24.06.2019 10:10 25,7 C 54 % 1020,4 hPa 0,0 l/m 8,7 km/h (2 Bft) S-SW 213 15,7 C 25,7 C 20,3 km/h (4 Bft) 100 %
24.06.2019 10:00 25,4 C 55 % 1020,4 hPa 0,0 l/m 8,3 km/h (2 Bft) O-SO 104 15,7 C 25,4 C 22,3 km/h (4 Bft) 99 %
_ Min-Zeit 05:40 17:00 05:10 - 04:00 - - 05:10 05:20 23:10 15:04
Minimum _ 19,8 C 33 % 1017,7 hPa - 2,2 km/h (1 Bft) - - 13,2 C 19,9 C 6,1 km/h (2 Bft) 96 %
_ Max-Zeit 15:50 05:20 10:00 10:00 13:30 - - 12:40 15:50 12:20 11:20
Maximum _ 32,8 C 66 % 1020,4 hPa 0,0 l/m 12,1 km/h
O (2 Bft)
- - 17,1 C 32,8 C 34,5 km/h
O (5 Bft)
100 %
Durchschnitt _ 26,3 C 50 % 1018,8 hPa #0,0 l/m 6,7 km/h (2 Bft) O-SO - 14,8 C 26,3 C 18,8 km/h (3 Bft) 99 %